createdAt,value
2018-11-20T00:00:00.288Z,6.47
2018-11-20T00:01:10.877Z,5.90
2018-11-20T00:02:05.421Z,6.53
2018-11-20T00:03:15.944Z,6.70
2018-11-20T00:04:20.654Z,7.20
2018-11-20T00:05:22.431Z,7.57
2018-11-20T00:06:12.717Z,6.27
2018-11-20T00:07:07.553Z,6.10
2018-11-20T00:08:15.236Z,6.53
2018-11-20T00:09:07.085Z,6.87
2018-11-20T00:10:16.248Z,7.07
2018-11-20T00:11:03.663Z,6.00
2018-11-20T00:16:30.471Z,8.17
2018-11-20T00:17:23.432Z,6.80
2018-11-20T00:18:16.889Z,8.00
2018-11-20T00:19:11.957Z,7.00
2018-11-20T00:20:05.524Z,8.40
2018-11-20T00:21:03.297Z,7.30
2018-11-20T00:22:08.978Z,7.40
2018-11-20T00:23:34.539Z,7.07
2018-11-20T00:24:29.524Z,8.17
2018-11-20T00:25:32.418Z,7.40
2018-11-20T00:26:27.580Z,6.93
2018-11-20T00:27:20.891Z,6.50
2018-11-20T00:28:18.851Z,7.17
2018-11-20T00:29:02.561Z,6.57
2018-11-20T00:29:56.581Z,7.13
2018-11-20T00:30:51.385Z,6.30
2018-11-20T00:31:46.426Z,7.20
2018-11-20T00:32:56.602Z,5.60
2018-11-20T00:34:06.741Z,6.57
2018-11-20T00:35:08.244Z,6.63
2018-11-20T00:36:01.677Z,6.20
2018-11-20T00:36:57.068Z,5.90
2018-11-20T00:38:05.625Z,6.20
2018-11-20T00:39:18.335Z,5.53
2018-11-20T00:40:03.658Z,5.73
2018-11-20T00:41:02.499Z,6.17
2018-11-20T00:41:55.891Z,6.03
2018-11-20T00:42:53.655Z,6.00
2018-11-20T00:43:43.327Z,5.90
2018-11-20T00:44:36.840Z,6.27
2018-11-20T00:45:25.981Z,5.80
2018-11-20T00:46:28.938Z,7.40
2018-11-20T00:47:21.535Z,6.83
2018-11-20T00:48:21.394Z,6.07
2018-11-20T00:49:14.947Z,6.53
2018-11-20T00:50:08.473Z,7.40
2018-11-20T00:51:01.986Z,5.90
2018-11-20T00:51:57.013Z,7.47
2018-11-20T00:52:52.079Z,6.87
2018-11-20T00:53:45.257Z,7.87
2018-11-20T00:54:43.151Z,7.07
2018-11-20T00:56:19.142Z,6.80
2018-11-20T00:57:14.742Z,7.20
2018-11-20T00:58:16.032Z,7.50
2018-11-20T00:59:14.246Z,7.90
2018-11-20T01:00:11.541Z,7.70
2018-11-20T01:00:58.117Z,7.40
2018-11-20T01:01:53.148Z,7.00
2018-11-20T01:02:57.066Z,7.97
2018-11-20T01:04:04.044Z,8.10
2018-11-20T01:05:20.222Z,9.53
2018-11-20T01:06:30.314Z,9.23
2018-11-20T01:07:23.436Z,8.37
2018-11-20T01:08:18.425Z,8.77
2018-11-20T01:09:13.575Z,8.60
2018-11-20T01:10:15.811Z,8.50
2018-11-20T01:11:19.349Z,7.73
2018-11-20T01:12:20.508Z,7.90
2018-11-20T01:13:14.353Z,8.60
2018-11-20T01:14:15.696Z,8.17
2018-11-20T01:15:19.599Z,7.17
2018-11-20T01:16:23.438Z,8.67
2018-11-20T01:17:18.699Z,7.77
2018-11-20T01:18:24.795Z,8.53
2018-11-20T01:19:34.692Z,7.27
2018-11-20T01:20:41.621Z,7.50
2018-11-20T01:21:35.356Z,8.57
2018-11-20T01:22:39.527Z,7.50
2018-11-20T01:23:28.996Z,7.90
2018-11-20T01:24:30.024Z,9.50
2018-11-20T01:25:25.145Z,7.67
2018-11-20T01:26:28.914Z,8.27
2018-11-20T01:27:32.598Z,8.23
2018-11-20T01:28:27.581Z,8.20
2018-11-20T01:29:22.507Z,8.47
2018-11-20T01:30:15.726Z,8.50
2018-11-20T01:31:10.858Z,9.00
2018-11-20T01:32:03.928Z,8.13
2018-11-20T01:32:56.665Z,8.43
2018-11-20T01:33:50.143Z,8.13
2018-11-20T01:34:43.538Z,8.43
2018-11-20T01:35:36.972Z,7.70
2018-11-20T01:36:31.354Z,8.75
2018-11-20T01:37:29.443Z,8.07
2018-11-20T01:38:17.174Z,8.00
2018-11-20T01:39:30.210Z,7.37
2018-11-20T01:40:28.305Z,6.03
2018-11-20T01:41:29.526Z,6.30
2018-11-20T01:42:33.409Z,4.67
2018-11-20T01:43:19.815Z,4.90
2018-11-20T01:44:26.780Z,5.20
2018-11-20T01:45:19.904Z,5.37
2018-11-20T01:46:17.666Z,4.10
2018-11-20T01:47:22.060Z,4.60
2018-11-20T01:48:20.107Z,5.80
2018-11-20T01:49:24.082Z,5.60
2018-11-20T01:50:28.115Z,5.90
2018-11-20T01:51:23.185Z,7.13
2018-11-20T01:52:06.562Z,7.03
2018-11-20T01:52:59.676Z,8.20
2018-11-20T01:53:59.577Z,7.10
2018-11-20T01:55:00.431Z,7.30
2018-11-20T01:56:02.535Z,6.37
2018-11-20T01:56:55.998Z,6.03
2018-11-20T01:58:02.622Z,5.20
2018-11-20T01:59:00.431Z,7.30
2018-11-20T01:59:55.471Z,6.60
2018-11-20T02:00:36.238Z,5.20
2018-11-20T02:01:29.799Z,5.43
2018-11-20T02:02:42.692Z,5.90
2018-11-20T02:03:40.462Z,6.17
2018-11-20T02:04:36.220Z,5.50
2018-11-20T02:05:34.987Z,4.50
2018-11-20T02:06:32.557Z,4.90
2018-11-20T02:07:29.220Z,4.37
2018-11-20T02:08:24.267Z,4.97
2018-11-20T02:09:17.335Z,3.87
2018-11-20T02:10:10.813Z,3.80
2018-11-20T02:11:04.195Z,4.30
2018-11-20T02:11:57.536Z,4.57
2018-11-20T02:12:56.101Z,3.97
2018-11-20T02:14:39.659Z,3.10
2018-11-20T02:15:33.141Z,3.50
2018-11-20T02:16:31.027Z,3.57
2018-11-20T02:17:52.334Z,3.77
2018-11-20T02:18:56.524Z,3.80
2018-11-20T02:20:00.191Z,2.87
2018-11-20T02:21:07.026Z,2.57
2018-11-20T02:22:00.494Z,3.40
2018-11-20T02:22:53.757Z,3.43
2018-11-20T02:23:47.032Z,2.80
2018-11-20T02:24:50.719Z,3.10
2018-11-20T02:25:43.975Z,2.90
2018-11-20T02:26:37.556Z,2.90
2018-11-20T02:27:41.295Z,3.00
2018-11-20T02:28:39.257Z,2.70
2018-11-20T02:29:32.758Z,2.30
2018-11-20T02:30:35.909Z,2.80
2018-11-20T02:31:23.571Z,2.20
2018-11-20T02:32:27.564Z,2.30
2018-11-20T02:33:20.929Z,2.20
2018-11-20T02:34:14.431Z,2.10
2018-11-20T02:35:09.597Z,2.50
2018-11-20T02:36:22.905Z,2.23
2018-11-20T02:37:29.951Z,2.20
2018-11-20T02:38:39.967Z,2.30
2018-11-20T02:39:35.081Z,1.90
2018-11-20T02:40:28.705Z,2.07
2018-11-20T02:41:29.674Z,2.00
2018-11-20T02:42:22.620Z,2.30
2018-11-20T02:43:26.391Z,2.00
2018-11-20T02:44:30.649Z,2.03
2018-11-20T02:45:40.029Z,1.93
2018-11-20T02:46:33.599Z,1.97
2018-11-20T02:47:34.496Z,2.10
2018-11-20T02:48:29.012Z,1.80
2018-11-20T02:49:41.921Z,1.80
2018-11-20T02:50:48.583Z,1.60
2018-11-20T02:51:42.068Z,1.77
2018-11-20T02:52:49.314Z,2.10
2018-11-20T02:53:41.061Z,1.90
2018-11-20T02:54:31.278Z,1.67
2018-11-20T02:55:26.267Z,1.93
2018-11-20T02:56:24.070Z,1.80
2018-11-20T02:57:17.666Z,2.03
2018-11-20T02:58:24.662Z,2.00
2018-11-20T02:59:22.616Z,1.70
2018-11-20T03:00:16.175Z,2.30
2018-11-20T03:01:14.026Z,2.13
2018-11-20T03:02:07.590Z,2.00
2018-11-20T03:02:57.184Z,1.73
2018-11-20T03:03:50.622Z,2.20
2018-11-20T03:04:48.572Z,1.63
2018-11-20T03:05:58.841Z,1.90
2018-11-20T03:06:59.697Z,2.10
2018-11-20T03:07:57.664Z,1.90
2018-11-20T03:08:51.268Z,2.10
2018-11-20T03:09:49.041Z,1.80
2018-11-20T03:10:46.772Z,1.13
2018-11-20T03:11:41.795Z,1.60
2018-11-20T03:12:44.285Z,1.70
2018-11-20T03:13:37.518Z,1.60
2018-11-20T03:14:28.095Z,2.12
2018-11-20T03:15:32.105Z,2.10
2018-11-20T03:16:33.211Z,1.80
2018-11-20T03:17:28.201Z,1.87
2018-11-20T03:18:19.518Z,1.63
2018-11-20T03:19:19.826Z,1.80
2018-11-20T03:20:14.894Z,1.50
2018-11-20T03:21:11.007Z,2.43
2018-11-20T03:22:08.733Z,1.77
2018-11-20T03:23:22.115Z,2.33
2018-11-20T03:24:19.750Z,1.80
2018-11-20T03:25:29.953Z,1.47
2018-11-20T03:26:26.416Z,1.77
2018-11-20T03:27:15.994Z,1.87
2018-11-20T03:28:09.571Z,1.87
2018-11-20T03:29:28.911Z,2.50
2018-11-20T03:31:12.160Z,2.47
2018-11-20T03:32:25.141Z,2.10
2018-11-20T03:33:18.547Z,2.00
2018-11-20T03:34:20.449Z,2.37
2018-11-20T03:35:13.999Z,2.10
2018-11-20T03:36:23.924Z,1.60
2018-11-20T03:37:21.830Z,1.73
2018-11-20T03:38:16.822Z,1.70
2018-11-20T03:39:10.248Z,2.03
2018-11-20T03:40:05.311Z,1.77
2018-11-20T03:41:09.213Z,2.10
2018-11-20T03:42:02.286Z,1.90
2018-11-20T03:43:01.521Z,2.10
2018-11-20T03:44:14.725Z,1.70
2018-11-20T03:45:08.160Z,1.93
2018-11-20T03:46:12.061Z,2.20
2018-11-20T03:47:24.927Z,1.97
2018-11-20T03:48:18.066Z,2.53
2018-11-20T03:49:11.856Z,1.80
2018-11-20T03:50:05.127Z,2.20
2018-11-20T03:50:58.579Z,1.90
2018-11-20T03:51:50.907Z,2.10
2018-11-20T03:52:44.096Z,2.43
2018-11-20T03:53:37.755Z,2.30
2018-11-20T03:54:33.801Z,1.82
2018-11-20T03:55:28.872Z,2.60
2018-11-20T03:56:28.033Z,1.90
2018-11-20T03:57:31.799Z,2.10
2018-11-20T03:58:26.792Z,1.90
2018-11-20T03:59:30.079Z,2.20
2018-11-20T04:00:23.672Z,2.23
2018-11-20T04:01:27.913Z,2.17
2018-11-20T04:02:31.865Z,2.20
2018-11-20T04:03:35.695Z,1.67
2018-11-20T04:04:28.871Z,2.93
2018-11-20T04:05:23.922Z,2.03
2018-11-20T04:06:27.914Z,2.70
2018-11-20T04:07:21.357Z,2.30
2018-11-20T04:08:16.333Z,2.13
2018-11-20T04:09:11.332Z,2.17
2018-11-20T04:10:06.352Z,2.30
2018-11-20T04:11:02.169Z,1.90
2018-11-20T04:12:12.039Z,1.70
2018-11-20T04:13:19.129Z,2.00
2018-11-20T04:14:29.043Z,1.77
2018-11-20T04:15:22.585Z,1.33
2018-11-20T04:16:29.620Z,1.50
2018-11-20T04:17:30.620Z,1.43
2018-11-20T04:18:25.574Z,1.80
2018-11-20T04:19:23.528Z,1.60
2018-11-20T04:20:11.130Z,1.57
2018-11-20T04:21:04.215Z,1.23
2018-11-20T04:21:57.731Z,1.77
2018-11-20T04:22:51.319Z,2.03
2018-11-20T04:23:46.260Z,1.63
2018-11-20T04:24:55.979Z,1.63
2018-11-20T04:25:57.791Z,1.43
2018-11-20T04:26:47.496Z,1.30
2018-11-20T04:27:41.010Z,1.37
2018-11-20T04:28:32.225Z,1.10
2018-11-20T04:29:25.667Z,1.47
2018-11-20T04:31:01.412Z,1.50
2018-11-20T04:32:17.022Z,1.90
2018-11-20T04:33:49.660Z,1.70
2018-11-20T04:34:50.529Z,1.60
2018-11-20T04:35:42.509Z,1.70
2018-11-20T04:36:43.507Z,1.73
2018-11-20T04:37:50.922Z,1.90
2018-11-20T04:38:45.930Z,1.53
2018-11-20T04:39:39.080Z,1.70
2018-11-20T04:40:33.432Z,1.60
2018-11-20T04:41:31.439Z,2.23
2018-11-20T04:42:25.528Z,1.80
2018-11-20T04:43:32.378Z,1.70
2018-11-20T04:44:42.337Z,2.10
2018-11-20T04:45:40.168Z,1.60
2018-11-20T04:46:33.482Z,1.67
2018-11-20T04:47:26.672Z,1.70
2018-11-20T04:48:19.298Z,1.50
2018-11-20T04:49:12.835Z,1.40
2018-11-20T04:50:13.603Z,2.00
2018-11-20T04:51:02.263Z,1.60
2018-11-20T04:51:57.297Z,1.70
2018-11-20T04:52:50.549Z,2.80
2018-11-20T04:54:03.737Z,1.97
2018-11-20T04:54:52.254Z,1.97
2018-11-20T04:55:52.778Z,1.70
2018-11-20T04:56:53.474Z,1.83
2018-11-20T04:58:00.345Z,1.60
2018-11-20T04:59:07.675Z,1.30
2018-11-20T05:00:03.021Z,1.80
2018-11-20T05:01:09.794Z,2.10
2018-11-20T05:02:16.799Z,1.30
2018-11-20T05:03:10.567Z,1.73
2018-11-20T05:04:06.829Z,1.70
2018-11-20T05:05:01.827Z,1.60
2018-11-20T05:05:55.214Z,1.90
2018-11-20T05:06:40.044Z,1.90
2018-11-20T05:07:28.061Z,1.63
2018-11-20T05:08:21.608Z,1.90
2018-11-20T05:09:16.699Z,1.67
2018-11-20T05:10:10.102Z,1.70
2018-11-20T05:11:03.359Z,1.30
2018-11-20T05:12:07.483Z,1.50
2018-11-20T05:12:58.689Z,2.07
2018-11-20T05:13:50.510Z,1.80
2018-11-20T05:14:46.685Z,1.50
2018-11-20T05:15:40.866Z,1.50
2018-11-20T05:16:41.867Z,2.00
2018-11-20T05:17:34.659Z,1.60
2018-11-20T05:18:35.838Z,1.50
2018-11-20T05:19:28.984Z,2.00
2018-11-20T05:20:42.404Z,1.70
2018-11-20T05:21:52.724Z,1.60
2018-11-20T05:22:45.859Z,1.77
2018-11-20T05:23:40.835Z,1.73
2018-11-20T05:24:36.240Z,1.70
2018-11-20T05:25:31.785Z,1.80
2018-11-20T05:26:18.059Z,1.47
2018-11-20T05:27:10.657Z,1.30
2018-11-20T05:28:20.849Z,1.93
2018-11-20T05:29:26.830Z,1.47
2018-11-20T05:30:16.801Z,1.50
2018-11-20T05:31:14.484Z,1.87
2018-11-20T05:32:01.409Z,1.37
2018-11-20T05:33:02.441Z,2.50
2018-11-20T05:33:51.298Z,1.50
2018-11-20T05:34:48.666Z,2.00
2018-11-20T05:35:41.800Z,1.67
2018-11-20T05:36:37.891Z,1.50
2018-11-20T05:37:31.733Z,2.10
2018-11-20T05:38:41.834Z,1.77
2018-11-20T05:39:35.210Z,1.40
2018-11-20T05:40:28.778Z,2.03
2018-11-20T05:41:22.217Z,1.70
2018-11-20T05:42:07.124Z,2.00
2018-11-20T05:43:10.970Z,1.50
2018-11-20T05:44:11.893Z,2.10
2018-11-20T05:45:05.608Z,2.10
2018-11-20T05:46:03.413Z,1.80
2018-11-20T05:46:57.115Z,1.90
2018-11-20T05:47:54.636Z,1.90
2018-11-20T05:48:47.932Z,2.03
2018-11-20T05:50:00.886Z,1.90
2018-11-20T05:50:49.008Z,2.27
2018-11-20T05:51:42.482Z,2.30
2018-11-20T05:52:43.476Z,1.70
2018-11-20T05:53:28.698Z,1.80
2018-11-20T05:54:17.739Z,1.70
2018-11-20T05:55:21.217Z,1.90
2018-11-20T05:56:21.894Z,1.60
2018-11-20T05:57:09.787Z,1.90
2018-11-20T05:58:03.453Z,1.63
2018-11-20T05:58:53.743Z,1.83
2018-11-20T05:59:48.726Z,2.07
2018-11-20T06:00:58.931Z,2.07
2018-11-20T06:01:52.452Z,1.93
2018-11-20T06:02:47.478Z,2.07
2018-11-20T06:03:41.153Z,2.07
2018-11-20T06:04:34.404Z,1.70
2018-11-20T06:05:33.732Z,1.83
2018-11-20T06:06:23.373Z,2.27
2018-11-20T06:07:24.140Z,2.03
2018-11-20T06:08:17.715Z,1.70
2018-11-20T06:09:15.563Z,1.93
2018-11-20T06:10:10.578Z,1.53
2018-11-20T06:11:19.177Z,1.97
2018-11-20T06:12:21.306Z,2.00
2018-11-20T06:13:11.260Z,2.03
2018-11-20T06:14:01.115Z,2.20
2018-11-20T06:15:11.152Z,2.07
2018-11-20T06:16:04.800Z,2.30
2018-11-20T06:17:03.530Z,1.90
2018-11-20T06:17:56.814Z,1.90
2018-11-20T06:19:01.126Z,2.13
2018-11-20T06:19:55.778Z,2.30
2018-11-20T06:20:49.432Z,2.17
2018-11-20T06:21:44.724Z,2.07
2018-11-20T06:22:40.045Z,1.87
2018-11-20T06:23:26.160Z,2.13
2018-11-20T06:24:30.234Z,3.37
2018-11-20T06:25:34.298Z,3.33
2018-11-20T06:26:44.429Z,3.03
2018-11-20T06:27:39.515Z,4.03
2018-11-20T06:28:34.572Z,3.77
2018-11-20T06:29:29.656Z,3.30
2018-11-20T06:30:30.415Z,2.50
2018-11-20T06:31:24.107Z,2.40
2018-11-20T06:32:11.709Z,2.50
2018-11-20T06:32:59.696Z,2.23
2018-11-20T06:33:53.298Z,2.27
2018-11-20T06:34:46.575Z,2.80
2018-11-20T06:35:40.613Z,2.50
2018-11-20T06:36:38.566Z,2.20
2018-11-20T06:37:24.354Z,2.97
2018-11-20T06:38:17.727Z,2.30
2018-11-20T06:39:15.220Z,2.60
2018-11-20T06:40:11.249Z,2.40
2018-11-20T06:41:15.361Z,2.00
2018-11-20T06:42:10.289Z,2.10
2018-11-20T06:43:03.858Z,2.10
2018-11-20T06:43:57.337Z,1.73
2018-11-20T06:44:52.418Z,1.90
2018-11-20T06:45:45.856Z,1.60
2018-11-20T06:46:49.660Z,1.33
2018-11-20T06:47:42.864Z,2.23
2018-11-20T06:49:00.565Z,2.23
2018-11-20T06:49:55.419Z,2.43
2018-11-20T06:50:54.551Z,2.03
2018-11-20T06:51:55.304Z,2.43
2018-11-20T06:52:59.566Z,1.87
2018-11-20T06:53:52.751Z,2.30
2018-11-20T06:54:48.260Z,1.83
2018-11-20T06:55:41.792Z,2.00
2018-11-20T06:56:48.557Z,1.70
2018-11-20T06:57:43.477Z,1.70
2018-11-20T06:58:41.449Z,1.70
2018-11-20T06:59:35.282Z,1.70
2018-11-20T07:00:28.720Z,2.10
2018-11-20T07:01:30.234Z,2.20
2018-11-20T07:02:25.769Z,2.17
2018-11-20T07:03:18.842Z,2.00
2018-11-20T07:04:12.335Z,2.77
2018-11-20T07:05:19.474Z,2.27
2018-11-20T07:06:12.753Z,2.17
2018-11-20T07:07:06.350Z,2.33
2018-11-20T07:07:53.554Z,2.40
2018-11-20T07:09:00.414Z,2.00
2018-11-20T07:09:58.326Z,2.37
2018-11-20T07:10:47.327Z,2.47
2018-11-20T07:11:48.250Z,2.07
2018-11-20T07:12:58.339Z,2.40
2018-11-20T07:13:56.667Z,2.27
2018-11-20T07:14:51.495Z,2.27
2018-11-20T07:15:45.138Z,1.90
2018-11-20T07:16:42.114Z,2.27
2018-11-20T07:17:55.089Z,1.77
2018-11-20T07:18:55.988Z,2.50
2018-11-20T07:19:53.573Z,2.57
2018-11-20T07:20:51.351Z,2.13
2018-11-20T07:22:04.826Z,2.07
2018-11-20T07:22:59.842Z,2.50
2018-11-20T07:24:00.097Z,2.27
2018-11-20T07:24:57.883Z,2.23
2018-11-20T07:26:11.384Z,2.40
2018-11-20T07:27:04.599Z,2.53
2018-11-20T07:28:17.816Z,2.80
2018-11-20T07:29:11.074Z,2.10
2018-11-20T07:30:12.396Z,2.47
2018-11-20T07:31:13.295Z,2.20
2018-11-20T07:32:23.261Z,2.73
2018-11-20T07:33:18.034Z,2.60
2018-11-20T07:34:11.411Z,2.90
2018-11-20T07:35:05.020Z,2.70
2018-11-20T07:35:57.509Z,2.80
2018-11-20T07:37:04.548Z,2.70
2018-11-20T07:37:50.523Z,2.37
2018-11-20T07:38:45.549Z,2.53
2018-11-20T07:39:43.617Z,2.80
2018-11-20T07:40:41.447Z,3.00
2018-11-20T07:41:34.976Z,2.60
2018-11-20T07:42:42.225Z,2.90
2018-11-20T07:43:35.849Z,3.63
2018-11-20T07:44:36.682Z,3.83
2018-11-20T07:45:40.586Z,4.30
2018-11-20T07:46:38.535Z,3.97
2018-11-20T07:47:28.015Z,4.20
2018-11-20T07:48:23.016Z,5.20
2018-11-20T07:49:20.830Z,5.73
2018-11-20T07:50:14.330Z,6.00
2018-11-20T07:51:18.203Z,5.97
2018-11-20T07:52:31.807Z,6.13
2018-11-20T07:53:35.455Z,5.03
2018-11-20T07:54:18.602Z,5.20
2018-11-20T07:55:13.649Z,5.33
2018-11-20T07:56:17.790Z,5.30
2018-11-20T07:57:21.430Z,4.43
2018-11-20T07:58:34.412Z,4.80
2018-11-20T07:59:28.008Z,4.63
2018-11-20T08:00:21.764Z,4.30
2018-11-20T08:01:31.852Z,4.93
2018-11-20T08:02:29.534Z,5.20
2018-11-20T08:03:27.165Z,5.10
2018-11-20T08:04:18.125Z,5.17
2018-11-20T08:05:02.025Z,5.50
2018-11-20T08:05:55.225Z,4.87
2018-11-20T08:07:05.205Z,4.87
2018-11-20T08:07:58.752Z,4.50
2018-11-20T08:08:48.789Z,4.70
2018-11-20T08:10:01.966Z,4.67
2018-11-20T08:10:47.142Z,4.43
2018-11-20T08:11:40.270Z,4.43
2018-11-20T08:12:33.603Z,5.80
2018-11-20T08:13:37.973Z,4.67
2018-11-20T08:14:31.077Z,4.83
2018-11-20T08:15:24.613Z,4.90
2018-11-20T08:16:16.121Z,4.80
2018-11-20T08:16:59.762Z,5.33
2018-11-20T08:18:07.168Z,5.03
2018-11-20T08:19:04.838Z,4.50
2018-11-20T08:19:59.815Z,4.07
2018-11-20T08:20:54.675Z,4.70
2018-11-20T08:21:58.224Z,5.60
2018-11-20T08:23:02.381Z,4.27
2018-11-20T08:23:54.067Z,4.43
2018-11-20T08:24:55.002Z,4.10
2018-11-20T08:25:48.543Z,4.00
2018-11-20T08:26:41.100Z,3.80
2018-11-20T08:27:44.958Z,3.90
2018-11-20T08:28:38.624Z,3.10
2018-11-20T08:29:31.915Z,3.13
2018-11-20T08:30:27.991Z,3.07
2018-11-20T08:31:29.083Z,2.97
2018-11-20T08:32:24.114Z,2.93
2018-11-20T08:33:17.615Z,3.43
2018-11-20T08:34:01.673Z,3.23
2018-11-20T08:35:11.739Z,2.40
2018-11-20T08:36:12.132Z,3.70
2018-11-20T08:37:25.016Z,3.20
2018-11-20T08:38:18.588Z,3.17
2018-11-20T08:39:12.218Z,2.57
2018-11-20T08:40:22.559Z,3.10
2018-11-20T08:41:16.917Z,3.43
2018-11-20T08:42:24.028Z,3.00
2018-11-20T08:43:17.279Z,2.93
2018-11-20T08:44:10.656Z,3.10
2018-11-20T08:45:08.502Z,2.73
2018-11-20T08:45:56.848Z,3.30
2018-11-20T08:46:51.930Z,3.40
2018-11-20T08:47:54.459Z,3.40
2018-11-20T08:48:52.278Z,4.00
2018-11-20T08:49:45.419Z,2.63
2018-11-20T08:50:43.153Z,2.90
2018-11-20T08:51:36.702Z,2.90
2018-11-20T08:52:30.575Z,2.75
2018-11-20T08:53:25.270Z,2.80
2018-11-20T08:54:20.327Z,2.47
2018-11-20T08:55:15.446Z,2.23
2018-11-20T08:56:12.372Z,2.50
2018-11-20T08:57:13.322Z,2.50
2018-11-20T08:58:11.287Z,2.17
2018-11-20T08:59:04.731Z,2.40
2018-11-20T09:00:08.445Z,2.23
2018-11-20T09:01:01.862Z,1.90
2018-11-20T09:01:53.462Z,2.30
2018-11-20T09:02:46.628Z,2.20
2018-11-20T09:03:41.594Z,2.30
2018-11-20T09:04:42.621Z,2.40
2018-11-20T09:05:44.567Z,1.93
2018-11-20T09:06:48.409Z,2.50
2018-11-20T09:07:41.942Z,2.00
2018-11-20T09:08:36.931Z,2.10
2018-11-20T09:09:30.491Z,1.90
2018-11-20T09:10:24.321Z,1.80
2018-11-20T09:11:12.948Z,1.90
2018-11-20T09:12:04.117Z,1.87
2018-11-20T09:13:14.657Z,1.90
2018-11-20T09:14:08.995Z,1.83
2018-11-20T09:15:22.232Z,2.20
2018-11-20T09:16:15.987Z,2.30
2018-11-20T09:17:23.265Z,2.47
2018-11-20T09:18:10.982Z,2.10
2018-11-20T09:19:24.390Z,2.80
2018-11-20T09:20:18.257Z,2.93
2018-11-20T09:21:13.196Z,2.20
2018-11-20T09:22:08.150Z,2.57
2018-11-20T09:23:01.442Z,3.37
2018-11-20T09:24:02.295Z,2.70
2018-11-20T09:24:55.366Z,3.20
2018-11-20T09:25:48.748Z,2.60
2018-11-20T09:26:46.025Z,3.23
2018-11-20T09:27:46.928Z,2.40
2018-11-20T09:28:40.305Z,2.57
2018-11-20T09:29:53.573Z,2.50
2018-11-20T09:30:54.194Z,2.33
2018-11-20T09:32:01.175Z,3.07
2018-11-20T09:32:50.658Z,2.63
2018-11-20T09:33:44.223Z,2.97
2018-11-20T09:34:44.953Z,2.80
2018-11-20T09:35:40.251Z,3.37
2018-11-20T09:36:41.268Z,3.07
2018-11-20T09:37:34.572Z,3.10
2018-11-20T09:38:21.824Z,3.63
2018-11-20T09:39:06.524Z,3.80
2018-11-20T09:40:29.681Z,3.43
2018-11-20T09:41:23.115Z,3.20
2018-11-20T09:42:16.550Z,3.03
2018-11-20T09:43:07.911Z,3.33
2018-11-20T09:44:10.086Z,3.00
2018-11-20T09:45:12.665Z,3.50
2018-11-20T09:46:24.467Z,4.60
2018-11-20T09:47:22.325Z,2.87
2018-11-20T09:48:13.245Z,3.60
2018-11-20T09:49:08.310Z,3.60
2018-11-20T09:50:01.965Z,2.80
2018-11-20T09:50:55.732Z,3.97
2018-11-20T09:52:00.392Z,3.57
2018-11-20T09:52:50.407Z,3.00
2018-11-20T09:53:45.366Z,3.90
2018-11-20T09:54:58.661Z,4.07
2018-11-20T09:55:52.050Z,4.20
2018-11-20T09:56:52.935Z,3.70
2018-11-20T09:57:50.885Z,3.80
2018-11-20T09:58:54.793Z,3.90
2018-11-20T09:59:59.084Z,4.03
2018-11-20T10:00:56.659Z,4.17
2018-11-20T10:01:54.641Z,4.17
2018-11-20T10:02:58.498Z,4.33
2018-11-20T10:03:59.648Z,3.97
2018-11-20T10:05:12.747Z,4.43
2018-11-20T10:06:25.846Z,4.87
2018-11-20T10:07:29.632Z,4.20
2018-11-20T10:08:19.902Z,4.23
2018-11-20T10:09:09.726Z,3.93
2018-11-20T10:10:03.060Z,4.40
2018-11-20T10:11:07.430Z,4.03
2018-11-20T10:12:08.097Z,4.13
2018-11-20T10:13:00.230Z,4.53
2018-11-20T10:14:01.030Z,4.70
2018-11-20T10:14:49.340Z,4.77
2018-11-20T10:15:44.212Z,5.33
2018-11-20T10:16:39.217Z,5.30
2018-11-20T10:17:32.607Z,4.90
2018-11-20T10:18:36.608Z,4.80
2018-11-20T10:19:30.132Z,4.70
2018-11-20T10:20:26.050Z,4.37
2018-11-20T10:21:21.108Z,4.70
2018-11-20T10:22:16.105Z,5.80
2018-11-20T10:23:09.311Z,4.50
2018-11-20T10:24:02.864Z,4.53
2018-11-20T10:25:15.959Z,4.63
2018-11-20T10:26:14.077Z,4.50
2018-11-20T10:27:07.525Z,4.77
2018-11-20T10:28:01.055Z,5.43
2018-11-20T10:29:00.349Z,4.57
2018-11-20T10:29:53.538Z,5.83
2018-11-20T10:30:51.313Z,5.73
2018-11-20T10:32:01.455Z,6.67
2018-11-20T10:32:54.706Z,5.40
2018-11-20T10:34:04.708Z,5.40
2018-11-20T10:35:03.925Z,5.57
2018-11-20T10:36:02.432Z,7.30
2018-11-20T10:36:55.888Z,5.67
2018-11-20T10:37:43.495Z,5.10
2018-11-20T10:38:50.326Z,5.43
2018-11-20T10:39:43.569Z,6.50
2018-11-20T10:40:53.585Z,5.67
2018-11-20T10:41:46.873Z,6.27
2018-11-20T10:42:44.605Z,5.73
2018-11-20T10:43:57.450Z,5.70
2018-11-20T10:44:54.053Z,6.50
2018-11-20T10:45:47.950Z,6.03
2018-11-20T10:46:35.662Z,6.00
2018-11-20T10:47:36.572Z,5.70
2018-11-20T10:48:50.474Z,6.00
2018-11-20T10:49:51.721Z,5.63
2018-11-20T10:50:45.008Z,6.53
2018-11-20T10:51:49.030Z,6.10
2018-11-20T10:52:56.080Z,6.27
2018-11-20T10:53:51.114Z,4.90
2018-11-20T10:55:04.262Z,6.00
2018-11-20T10:56:11.189Z,7.10
2018-11-20T10:57:04.368Z,5.60
2018-11-20T10:58:05.014Z,7.10
2018-11-20T10:59:05.969Z,6.00
2018-11-20T10:59:59.463Z,7.67
2018-11-20T11:00:52.949Z,6.57
2018-11-20T11:01:46.267Z,6.50
2018-11-20T11:02:42.161Z,6.27
2018-11-20T11:03:33.780Z,6.20
2018-11-20T11:04:27.392Z,7.40
2018-11-20T11:05:20.708Z,7.37
2018-11-20T11:06:14.687Z,6.40
2018-11-20T11:07:04.671Z,7.03
2018-11-20T11:07:58.151Z,6.40
2018-11-20T11:08:51.803Z,6.97
2018-11-20T11:09:43.080Z,6.63
2018-11-20T11:10:35.915Z,5.97
2018-11-20T11:11:46.367Z,6.10
2018-11-20T11:12:50.478Z,7.77
2018-11-20T11:14:00.847Z,6.00
2018-11-20T11:14:54.411Z,7.33
2018-11-20T11:15:52.620Z,7.67
2018-11-20T11:16:44.140Z,7.47
2018-11-20T11:17:38.019Z,7.30
2018-11-20T11:18:31.781Z,7.90
2018-11-20T11:19:25.566Z,7.37
2018-11-20T11:20:21.265Z,7.80
2018-11-20T11:21:15.053Z,9.83
2018-11-20T11:22:08.676Z,9.97
2018-11-20T11:22:58.136Z,8.37
2018-11-20T11:23:42.018Z,9.60
2018-11-20T11:24:39.828Z,9.20
2018-11-20T11:25:37.857Z,8.50
2018-11-20T11:26:50.916Z,8.80
2018-11-20T11:27:55.304Z,7.57
2018-11-20T11:28:52.219Z,8.00
2018-11-20T11:29:52.969Z,8.90
2018-11-20T11:30:48.156Z,8.63
2018-11-20T11:31:41.737Z,8.80
2018-11-20T11:32:39.675Z,8.43
2018-11-20T11:33:37.610Z,8.20
2018-11-20T11:34:27.128Z,9.10
2018-11-20T11:35:30.640Z,9.60
2018-11-20T11:36:22.506Z,10.00
2018-11-20T11:37:32.966Z,9.90
2018-11-20T11:38:46.373Z,7.47
2018-11-20T11:39:44.343Z,7.70
2018-11-20T11:40:48.564Z,8.80
2018-11-20T11:41:37.718Z,8.33
2018-11-20T11:42:33.073Z,8.73
2018-11-20T11:43:40.253Z,8.67
2018-11-20T11:44:33.646Z,9.13
2018-11-20T11:45:20.863Z,8.30
2018-11-20T11:46:20.191Z,8.53
2018-11-20T11:47:15.285Z,7.97
2018-11-20T11:48:08.747Z,8.17
2018-11-20T11:49:06.630Z,8.23
2018-11-20T11:50:07.631Z,8.07
2018-11-20T11:51:14.877Z,7.93
2018-11-20T11:52:10.247Z,8.07
2018-11-20T11:53:03.899Z,9.10
2018-11-20T11:53:57.524Z,8.50
2018-11-20T11:54:52.565Z,8.60
2018-11-20T11:55:45.563Z,7.10
2018-11-20T11:56:44.173Z,8.07
2018-11-20T11:57:43.469Z,7.73
2018-11-20T11:58:38.514Z,8.77
2018-11-20T11:59:32.178Z,7.87
2018-11-20T12:00:28.126Z,7.93
2018-11-20T12:01:21.753Z,7.97
2018-11-20T12:04:50.962Z,7.57
2018-11-20T12:05:44.394Z,8.53
2018-11-20T12:06:45.099Z,7.70
2018-11-20T12:07:58.654Z,7.87
2018-11-20T12:08:52.198Z,8.40
2018-11-20T12:09:39.021Z,7.60
2018-11-20T12:10:40.274Z,7.37
2018-11-20T12:11:33.948Z,7.83
2018-11-20T12:12:29.323Z,8.27
2018-11-20T12:13:42.399Z,7.30
2018-11-20T12:14:40.252Z,7.40
2018-11-20T12:15:38.801Z,7.90
2018-11-20T12:16:32.101Z,7.50
2018-11-20T12:17:25.556Z,7.80
2018-11-20T12:18:14.454Z,8.47
2018-11-20T12:19:12.320Z,7.97
2018-11-20T12:20:07.737Z,8.20
2018-11-20T12:21:01.853Z,7.67
2018-11-20T12:22:12.091Z,7.57
2018-11-20T12:23:05.800Z,7.03
2018-11-20T12:23:59.449Z,8.30
2018-11-20T12:24:57.651Z,7.37
2018-11-20T12:25:59.124Z,7.60
2018-11-20T12:26:52.977Z,8.53
2018-11-20T12:27:49.480Z,7.70
2018-11-20T12:28:45.026Z,7.93
2018-11-20T12:29:41.656Z,7.00
2018-11-20T12:30:53.564Z,7.03
2018-11-20T12:31:45.622Z,6.37
2018-11-20T12:32:36.452Z,8.17
2018-11-20T12:33:34.691Z,6.33
2018-11-20T12:34:37.577Z,6.87
2018-11-20T12:35:33.227Z,5.60
2018-11-20T12:36:21.104Z,5.50
2018-11-20T12:37:28.502Z,6.63
2018-11-20T12:38:26.961Z,7.00
2018-11-20T12:39:19.868Z,6.57
2018-11-20T12:40:14.633Z,6.17
2018-11-20T12:41:09.778Z,7.93
2018-11-20T12:42:10.229Z,6.07
2018-11-20T12:42:59.633Z,6.20
2018-11-20T12:44:05.898Z,6.93
2018-11-20T12:44:56.622Z,6.47
2018-11-20T12:46:12.962Z,6.60
2018-11-20T12:46:56.540Z,6.40
2018-11-20T12:47:50.574Z,7.20
2018-11-20T12:48:44.702Z,6.03
2018-11-20T12:49:45.757Z,7.37
2018-11-20T12:50:41.472Z,6.87
2018-11-20T12:51:36.964Z,7.67
2018-11-20T12:52:31.416Z,6.50
2018-11-20T12:53:32.654Z,6.00
2018-11-20T12:54:19.984Z,6.30
2018-11-20T12:55:13.621Z,5.80
2018-11-20T12:56:07.938Z,7.13
2018-11-20T12:57:06.531Z,6.30
2018-11-20T12:57:54.046Z,6.67
2018-11-20T12:58:46.426Z,7.07